sensor_id;sensor_type;location;lat;lon;timestamp;temperature;humidity
7360;DHT22;3720;48.274;7.796;2022-09-30T00:02:09;10.80;99.90
7360;DHT22;3720;48.274;7.796;2022-09-30T00:04:41;10.70;99.90
7360;DHT22;3720;48.274;7.796;2022-09-30T00:07:13;10.70;99.90
7360;DHT22;3720;48.274;7.796;2022-09-30T00:09:45;10.70;99.90
7360;DHT22;3720;48.274;7.796;2022-09-30T00:12:17;10.60;99.90
7360;DHT22;3720;48.274;7.796;2022-09-30T00:14:49;10.60;99.90
7360;DHT22;3720;48.274;7.796;2022-09-30T00:17:22;10.60;99.90
7360;DHT22;3720;48.274;7.796;2022-09-30T00:19:54;10.60;99.90
7360;DHT22;3720;48.274;7.796;2022-09-30T00:22:26;10.50;99.90
7360;DHT22;3720;48.274;7.796;2022-09-30T00:24:58;10.50;99.90
7360;DHT22;3720;48.274;7.796;2022-09-30T00:27:30;10.50;99.90
7360;DHT22;3720;48.274;7.796;2022-09-30T00:30:03;10.50;99.90
7360;DHT22;3720;48.274;7.796;2022-09-30T00:32:36;10.50;99.90
7360;DHT22;3720;48.274;7.796;2022-09-30T00:35:08;10.50;99.90
7360;DHT22;3720;48.274;7.796;2022-09-30T00:37:40;10.50;99.90
7360;DHT22;3720;48.274;7.796;2022-09-30T00:40:12;10.50;99.90
7360;DHT22;3720;48.274;7.796;2022-09-30T00:42:44;10.50;99.90
7360;DHT22;3720;48.274;7.796;2022-09-30T00:45:16;10.50;99.90
7360;DHT22;3720;48.274;7.796;2022-09-30T00:47:51;10.50;99.90
7360;DHT22;3720;48.274;7.796;2022-09-30T00:50:28;10.50;99.90
7360;DHT22;3720;48.274;7.796;2022-09-30T00:53:09;10.50;99.90
7360;DHT22;3720;48.274;7.796;2022-09-30T00:55:47;10.50;99.90
7360;DHT22;3720;48.274;7.796;2022-09-30T00:58:25;10.50;99.90
7360;DHT22;3720;48.274;7.796;2022-09-30T01:01:00;10.50;99.90
7360;DHT22;3720;48.274;7.796;2022-09-30T01:03:37;10.50;99.90
7360;DHT22;3720;48.274;7.796;2022-09-30T01:06:10;10.50;99.90
7360;DHT22;3720;48.274;7.796;2022-09-30T01:08:43;10.50;99.90
7360;DHT22;3720;48.274;7.796;2022-09-30T01:11:16;10.50;99.90
7360;DHT22;3720;48.274;7.796;2022-09-30T01:13:51;10.50;99.90
7360;DHT22;3720;48.274;7.796;2022-09-30T01:16:45;10.50;99.90
7360;DHT22;3720;48.274;7.796;2022-09-30T01:19:48;10.50;99.90
7360;DHT22;3720;48.274;7.796;2022-09-30T01:22:38;10.50;99.90
7360;DHT22;3720;48.274;7.796;2022-09-30T01:25:47;10.50;99.90
7360;DHT22;3720;48.274;7.796;2022-09-30T01:28:42;10.50;99.90
7360;DHT22;3720;48.274;7.796;2022-09-30T01:31:30;10.50;99.90
7360;DHT22;3720;48.274;7.796;2022-09-30T01:34:12;10.50;99.90
7360;DHT22;3720;48.274;7.796;2022-09-30T01:36:56;10.60;99.90
7360;DHT22;3720;48.274;7.796;2022-09-30T01:39:37;10.60;99.90
7360;DHT22;3720;48.274;7.796;2022-09-30T01:42:17;10.60;99.90
7360;DHT22;3720;48.274;7.796;2022-09-30T01:44:58;10.60;99.90
7360;DHT22;3720;48.274;7.796;2022-09-30T01:47:41;10.60;99.90
7360;DHT22;3720;48.274;7.796;2022-09-30T01:50:17;10.60;99.90
7360;DHT22;3720;48.274;7.796;2022-09-30T01:52:56;10.70;99.90
7360;DHT22;3720;48.274;7.796;2022-09-30T01:55:34;10.70;99.90
7360;DHT22;3720;48.274;7.796;2022-09-30T01:58:12;10.70;99.90
7360;DHT22;3720;48.274;7.796;2022-09-30T02:00:49;10.70;99.90
7360;DHT22;3720;48.274;7.796;2022-09-30T02:03:26;10.70;99.90
7360;DHT22;3720;48.274;7.796;2022-09-30T02:06:04;10.70;99.90
7360;DHT22;3720;48.274;7.796;2022-09-30T02:08:41;10.70;99.90
7360;DHT22;3720;48.274;7.796;2022-09-30T02:11:19;10.70;99.90
7360;DHT22;3720;48.274;7.796;2022-09-30T02:13:58;10.70;99.90
7360;DHT22;3720;48.274;7.796;2022-09-30T02:16:35;10.80;99.90
7360;DHT22;3720;48.274;7.796;2022-09-30T02:19:16;10.80;99.90
7360;DHT22;3720;48.274;7.796;2022-09-30T02:21:53;10.80;99.90
7360;DHT22;3720;48.274;7.796;2022-09-30T02:24:30;10.80;99.90
7360;DHT22;3720;48.274;7.796;2022-09-30T02:27:09;10.80;99.90
7360;DHT22;3720;48.274;7.796;2022-09-30T02:29:47;10.80;99.90
7360;DHT22;3720;48.274;7.796;2022-09-30T02:32:24;10.80;99.90
7360;DHT22;3720;48.274;7.796;2022-09-30T02:34:59;10.80;99.90
7360;DHT22;3720;48.274;7.796;2022-09-30T02:37:35;10.80;99.90
7360;DHT22;3720;48.274;7.796;2022-09-30T02:40:12;10.80;99.90
7360;DHT22;3720;48.274;7.796;2022-09-30T02:42:47;10.80;99.90
7360;DHT22;3720;48.274;7.796;2022-09-30T02:45:21;10.80;99.90
7360;DHT22;3720;48.274;7.796;2022-09-30T02:48:02;10.80;99.90
7360;DHT22;3720;48.274;7.796;2022-09-30T02:50:43;10.80;99.90
7360;DHT22;3720;48.274;7.796;2022-09-30T02:53:22;10.80;99.90
7360;DHT22;3720;48.274;7.796;2022-09-30T02:56:05;10.80;99.90
7360;DHT22;3720;48.274;7.796;2022-09-30T02:58:40;10.80;99.90
7360;DHT22;3720;48.274;7.796;2022-09-30T03:01:14;10.80;99.90
7360;DHT22;3720;48.274;7.796;2022-09-30T03:03:49;10.80;99.90
7360;DHT22;3720;48.274;7.796;2022-09-30T03:06:23;10.80;99.90
7360;DHT22;3720;48.274;7.796;2022-09-30T03:08:56;10.80;99.90
7360;DHT22;3720;48.274;7.796;2022-09-30T03:11:29;10.80;99.90
7360;DHT22;3720;48.274;7.796;2022-09-30T03:14:30;10.80;99.90
7360;DHT22;3720;48.274;7.796;2022-09-30T03:17:28;10.80;99.90
7360;DHT22;3720;48.274;7.796;2022-09-30T03:20:33;10.80;99.90
7360;DHT22;3720;48.274;7.796;2022-09-30T03:23:34;10.80;99.90
7360;DHT22;3720;48.274;7.796;2022-09-30T03:26:17;10.70;99.90
7360;DHT22;3720;48.274;7.796;2022-09-30T03:29:03;10.70;99.90
7360;DHT22;3720;48.274;7.796;2022-09-30T03:31:51;10.60;99.90
7360;DHT22;3720;48.274;7.796;2022-09-30T03:34:29;10.60;99.90
7360;DHT22;3720;48.274;7.796;2022-09-30T03:37:12;10.60;99.90
7360;DHT22;3720;48.274;7.796;2022-09-30T03:39:55;10.60;99.90
7360;DHT22;3720;48.274;7.796;2022-09-30T03:42:33;10.60;99.90
7360;DHT22;3720;48.274;7.796;2022-09-30T03:45:11;10.60;99.90
7360;DHT22;3720;48.274;7.796;2022-09-30T03:47:48;10.60;99.90
7360;DHT22;3720;48.274;7.796;2022-09-30T03:50:23;10.60;99.90
7360;DHT22;3720;48.274;7.796;2022-09-30T03:52:56;10.60;99.90
7360;DHT22;3720;48.274;7.796;2022-09-30T03:55:30;10.60;99.90
7360;DHT22;3720;48.274;7.796;2022-09-30T03:58:02;10.60;99.90
7360;DHT22;3720;48.274;7.796;2022-09-30T04:00:34;10.40;99.90
7360;DHT22;3720;48.274;7.796;2022-09-30T04:03:07;10.60;99.90
7360;DHT22;3720;48.274;7.796;2022-09-30T04:05:40;10.60;99.90
7360;DHT22;3720;48.274;7.796;2022-09-30T04:08:12;10.70;99.90
7360;DHT22;3720;48.274;7.796;2022-09-30T04:10:45;10.70;99.90
7360;DHT22;3720;48.274;7.796;2022-09-30T04:13:17;10.70;99.90
7360;DHT22;3720;48.274;7.796;2022-09-30T04:15:52;10.60;99.90
7360;DHT22;3720;48.274;7.796;2022-09-30T04:18:24;10.70;99.90
7360;DHT22;3720;48.274;7.796;2022-09-30T04:20:56;10.70;99.90
7360;DHT22;3720;48.274;7.796;2022-09-30T04:23:29;10.70;99.90
7360;DHT22;3720;48.274;7.796;2022-09-30T04:26:03;10.60;99.90
7360;DHT22;3720;48.274;7.796;2022-09-30T04:28:35;10.60;99.90
7360;DHT22;3720;48.274;7.796;2022-09-30T04:31:08;10.70;99.90
7360;DHT22;3720;48.274;7.796;2022-09-30T04:33:41;10.70;99.90
7360;DHT22;3720;48.274;7.796;2022-09-30T04:36:14;10.70;99.90
7360;DHT22;3720;48.274;7.796;2022-09-30T04:38:46;10.70;99.90
7360;DHT22;3720;48.274;7.796;2022-09-30T04:41:19;10.70;99.90
7360;DHT22;3720;48.274;7.796;2022-09-30T04:43:51;10.70;99.90
7360;DHT22;3720;48.274;7.796;2022-09-30T04:46:25;10.70;99.90
7360;DHT22;3720;48.274;7.796;2022-09-30T04:48:56;10.80;99.90
7360;DHT22;3720;48.274;7.796;2022-09-30T04:51:28;10.70;99.90
7360;DHT22;3720;48.274;7.796;2022-09-30T04:54:00;10.80;99.90
7360;DHT22;3720;48.274;7.796;2022-09-30T04:56:34;10.70;99.90
7360;DHT22;3720;48.274;7.796;2022-09-30T04:59:06;10.70;99.90
7360;DHT22;3720;48.274;7.796;2022-09-30T05:01:38;10.80;99.90
7360;DHT22;3720;48.274;7.796;2022-09-30T05:04:12;10.80;99.90
7360;DHT22;3720;48.274;7.796;2022-09-30T05:06:45;10.80;99.90
7360;DHT22;3720;48.274;7.796;2022-09-30T05:09:19;10.80;99.90
7360;DHT22;3720;48.274;7.796;2022-09-30T05:11:52;10.70;99.90
7360;DHT22;3720;48.274;7.796;2022-09-30T05:14:24;10.70;99.90
7360;DHT22;3720;48.274;7.796;2022-09-30T05:16:56;10.70;99.90
7360;DHT22;3720;48.274;7.796;2022-09-30T05:19:28;10.70;99.90
7360;DHT22;3720;48.274;7.796;2022-09-30T05:22:00;10.70;99.90
7360;DHT22;3720;48.274;7.796;2022-09-30T05:24:32;10.70;99.90
7360;DHT22;3720;48.274;7.796;2022-09-30T05:27:05;10.70;99.90
7360;DHT22;3720;48.274;7.796;2022-09-30T05:29:37;10.70;99.90
7360;DHT22;3720;48.274;7.796;2022-09-30T05:32:09;10.60;99.90
7360;DHT22;3720;48.274;7.796;2022-09-30T05:34:42;10.70;99.90
7360;DHT22;3720;48.274;7.796;2022-09-30T05:37:14;10.70;99.90
7360;DHT22;3720;48.274;7.796;2022-09-30T05:39:46;10.70;99.90
7360;DHT22;3720;48.274;7.796;2022-09-30T05:42:19;10.70;99.90
7360;DHT22;3720;48.274;7.796;2022-09-30T05:44:51;10.70;99.90
7360;DHT22;3720;48.274;7.796;2022-09-30T05:47:24;10.80;99.90
7360;DHT22;3720;48.274;7.796;2022-09-30T05:49:56;10.70;99.90
7360;DHT22;3720;48.274;7.796;2022-09-30T05:52:28;10.70;99.90
7360;DHT22;3720;48.274;7.796;2022-09-30T05:55:00;10.70;99.90
7360;DHT22;3720;48.274;7.796;2022-09-30T05:57:34;10.70;99.90
7360;DHT22;3720;48.274;7.796;2022-09-30T06:00:08;10.70;99.90
7360;DHT22;3720;48.274;7.796;2022-09-30T06:02:40;10.70;99.90
7360;DHT22;3720;48.274;7.796;2022-09-30T06:05:12;10.70;99.90
7360;DHT22;3720;48.274;7.796;2022-09-30T06:07:44;10.70;99.90
7360;DHT22;3720;48.274;7.796;2022-09-30T06:10:17;10.80;99.90
7360;DHT22;3720;48.274;7.796;2022-09-30T06:12:51;10.80;99.90
7360;DHT22;3720;48.274;7.796;2022-09-30T06:15:23;10.80;99.90
7360;DHT22;3720;48.274;7.796;2022-09-30T06:17:56;10.80;99.90
7360;DHT22;3720;48.274;7.796;2022-09-30T06:20:29;10.80;99.90
7360;DHT22;3720;48.274;7.796;2022-09-30T06:23:01;10.80;99.90
7360;DHT22;3720;48.274;7.796;2022-09-30T06:25:33;10.80;99.90
7360;DHT22;3720;48.274;7.796;2022-09-30T06:28:06;10.80;99.90
7360;DHT22;3720;48.274;7.796;2022-09-30T06:30:38;10.80;99.90
7360;DHT22;3720;48.274;7.796;2022-09-30T06:33:11;10.80;99.90
7360;DHT22;3720;48.274;7.796;2022-09-30T06:35:43;10.80;99.90
7360;DHT22;3720;48.274;7.796;2022-09-30T06:38:17;10.80;99.90
7360;DHT22;3720;48.274;7.796;2022-09-30T06:40:49;10.90;99.90
7360;DHT22;3720;48.274;7.796;2022-09-30T06:43:22;10.90;99.90
7360;DHT22;3720;48.274;7.796;2022-09-30T06:45:54;10.90;99.90
7360;DHT22;3720;48.274;7.796;2022-09-30T06:48:26;10.80;99.90
7360;DHT22;3720;48.274;7.796;2022-09-30T06:50:59;10.80;99.90
7360;DHT22;3720;48.274;7.796;2022-09-30T06:53:31;10.80;99.90
7360;DHT22;3720;48.274;7.796;2022-09-30T06:56:05;10.80;99.90
7360;DHT22;3720;48.274;7.796;2022-09-30T06:58:39;10.80;99.90
7360;DHT22;3720;48.274;7.796;2022-09-30T07:01:14;10.80;99.90
7360;DHT22;3720;48.274;7.796;2022-09-30T07:03:46;10.80;99.90
7360;DHT22;3720;48.274;7.796;2022-09-30T07:06:19;10.90;99.90
7360;DHT22;3720;48.274;7.796;2022-09-30T07:08:51;10.90;99.90
7360;DHT22;3720;48.274;7.796;2022-09-30T07:11:24;10.90;99.90
7360;DHT22;3720;48.274;7.796;2022-09-30T07:13:57;10.90;99.90
7360;DHT22;3720;48.274;7.796;2022-09-30T07:16:29;11.00;99.90
7360;DHT22;3720;48.274;7.796;2022-09-30T07:19:03;11.00;99.90
7360;DHT22;3720;48.274;7.796;2022-09-30T07:21:36;11.00;99.90
7360;DHT22;3720;48.274;7.796;2022-09-30T07:24:08;10.90;99.90
7360;DHT22;3720;48.274;7.796;2022-09-30T07:26:41;11.00;99.90
7360;DHT22;3720;48.274;7.796;2022-09-30T07:29:16;11.00;99.90
7360;DHT22;3720;48.274;7.796;2022-09-30T07:31:47;11.00;99.90
7360;DHT22;3720;48.274;7.796;2022-09-30T07:34:19;11.00;99.90
7360;DHT22;3720;48.274;7.796;2022-09-30T07:36:51;11.10;99.90
7360;DHT22;3720;48.274;7.796;2022-09-30T07:39:23;11.10;99.90
7360;DHT22;3720;48.274;7.796;2022-09-30T07:41:55;11.10;99.90
7360;DHT22;3720;48.274;7.796;2022-09-30T07:44:29;11.20;99.90
7360;DHT22;3720;48.274;7.796;2022-09-30T07:47:01;11.20;99.90
7360;DHT22;3720;48.274;7.796;2022-09-30T07:49:33;11.20;99.90
7360;DHT22;3720;48.274;7.796;2022-09-30T07:52:06;11.30;99.90
7360;DHT22;3720;48.274;7.796;2022-09-30T07:54:39;11.30;99.90
7360;DHT22;3720;48.274;7.796;2022-09-30T07:57:11;11.30;99.90
7360;DHT22;3720;48.274;7.796;2022-09-30T07:59:45;11.30;99.90
7360;DHT22;3720;48.274;7.796;2022-09-30T08:02:18;11.30;99.90
7360;DHT22;3720;48.274;7.796;2022-09-30T08:04:50;11.40;99.90
7360;DHT22;3720;48.274;7.796;2022-09-30T08:07:21;11.40;99.90
7360;DHT22;3720;48.274;7.796;2022-09-30T08:09:53;11.50;99.90
7360;DHT22;3720;48.274;7.796;2022-09-30T08:12:36;11.40;99.90
7360;DHT22;3720;48.274;7.796;2022-09-30T08:15:10;11.40;99.90
7360;DHT22;3720;48.274;7.796;2022-09-30T08:17:42;11.40;99.90
7360;DHT22;3720;48.274;7.796;2022-09-30T08:20:14;11.30;99.90
7360;DHT22;3720;48.274;7.796;2022-09-30T08:22:47;11.30;99.90
7360;DHT22;3720;48.274;7.796;2022-09-30T08:25:23;11.40;99.90
7360;DHT22;3720;48.274;7.796;2022-09-30T08:27:55;11.40;99.90
7360;DHT22;3720;48.274;7.796;2022-09-30T08:30:29;11.30;99.90
7360;DHT22;3720;48.274;7.796;2022-09-30T08:33:01;11.20;99.90
7360;DHT22;3720;48.274;7.796;2022-09-30T08:35:34;11.30;99.90
7360;DHT22;3720;48.274;7.796;2022-09-30T08:38:06;11.30;99.90
7360;DHT22;3720;48.274;7.796;2022-09-30T08:40:51;11.50;99.90
7360;DHT22;3720;48.274;7.796;2022-09-30T08:43:33;11.50;99.90
7360;DHT22;3720;48.274;7.796;2022-09-30T08:46:28;11.60;99.90
7360;DHT22;3720;48.274;7.796;2022-09-30T08:49:18;11.60;99.90
7360;DHT22;3720;48.274;7.796;2022-09-30T08:51:56;11.60;99.90
7360;DHT22;3720;48.274;7.796;2022-09-30T08:54:31;11.60;99.90
7360;DHT22;3720;48.274;7.796;2022-09-30T08:57:04;11.70;99.90
7360;DHT22;3720;48.274;7.796;2022-09-30T08:59:39;11.80;99.90
7360;DHT22;3720;48.274;7.796;2022-09-30T09:02:17;11.80;99.90
7360;DHT22;3720;48.274;7.796;2022-09-30T09:04:51;11.80;99.90
7360;DHT22;3720;48.274;7.796;2022-09-30T09:07:35;11.80;99.90
7360;DHT22;3720;48.274;7.796;2022-09-30T09:10:23;11.90;99.90
7360;DHT22;3720;48.274;7.796;2022-09-30T09:13:04;11.80;99.90
7360;DHT22;3720;48.274;7.796;2022-09-30T09:15:47;11.90;99.90
7360;DHT22;3720;48.274;7.796;2022-09-30T09:18:40;11.90;99.90
7360;DHT22;3720;48.274;7.796;2022-09-30T09:21:25;12.00;99.90
7360;DHT22;3720;48.274;7.796;2022-09-30T09:24:00;12.00;99.90
7360;DHT22;3720;48.274;7.796;2022-09-30T09:26:35;12.10;99.90
7360;DHT22;3720;48.274;7.796;2022-09-30T09:29:19;12.00;99.90
7360;DHT22;3720;48.274;7.796;2022-09-30T09:31:54;12.10;99.90
7360;DHT22;3720;48.274;7.796;2022-09-30T09:34:30;12.10;99.90
7360;DHT22;3720;48.274;7.796;2022-09-30T09:37:10;12.10;99.90
7360;DHT22;3720;48.274;7.796;2022-09-30T09:39:59;12.20;99.90
7360;DHT22;3720;48.274;7.796;2022-09-30T09:42:48;12.20;99.90
7360;DHT22;3720;48.274;7.796;2022-09-30T09:45:29;12.20;99.90
7360;DHT22;3720;48.274;7.796;2022-09-30T09:48:07;12.20;99.90
7360;DHT22;3720;48.274;7.796;2022-09-30T09:50:48;12.20;99.90
7360;DHT22;3720;48.274;7.796;2022-09-30T09:53:43;12.30;99.90
7360;DHT22;3720;48.274;7.796;2022-09-30T09:56:18;12.30;99.90
7360;DHT22;3720;48.274;7.796;2022-09-30T09:59:08;12.30;99.90
7360;DHT22;3720;48.274;7.796;2022-09-30T10:01:42;12.40;99.90
7360;DHT22;3720;48.274;7.796;2022-09-30T10:04:17;12.50;99.90
7360;DHT22;3720;48.274;7.796;2022-09-30T10:06:54;12.50;99.90
7360;DHT22;3720;48.274;7.796;2022-09-30T10:09:31;12.60;99.90
7360;DHT22;3720;48.274;7.796;2022-09-30T10:12:26;12.60;99.90
7360;DHT22;3720;48.274;7.796;2022-09-30T10:15:03;12.70;99.90
7360;DHT22;3720;48.274;7.796;2022-09-30T10:17:36;12.80;99.90
7360;DHT22;3720;48.274;7.796;2022-09-30T10:20:20;12.90;99.90
7360;DHT22;3720;48.274;7.796;2022-09-30T10:23:08;13.00;99.90
7360;DHT22;3720;48.274;7.796;2022-09-30T10:25:57;13.00;99.90
7360;DHT22;3720;48.274;7.796;2022-09-30T10:28:32;13.10;99.90
7360;DHT22;3720;48.274;7.796;2022-09-30T10:31:06;13.20;99.90
7360;DHT22;3720;48.274;7.796;2022-09-30T10:33:46;13.30;99.90
7360;DHT22;3720;48.274;7.796;2022-09-30T10:36:19;13.30;99.90
7360;DHT22;3720;48.274;7.796;2022-09-30T10:38:57;13.40;99.90
7360;DHT22;3720;48.274;7.796;2022-09-30T10:41:31;13.50;99.90
7360;DHT22;3720;48.274;7.796;2022-09-30T10:44:06;13.60;99.90
7360;DHT22;3720;48.274;7.796;2022-09-30T10:46:39;13.60;99.90
7360;DHT22;3720;48.274;7.796;2022-09-30T10:49:23;13.80;99.90
7360;DHT22;3720;48.274;7.796;2022-09-30T10:51:57;13.90;99.90
7360;DHT22;3720;48.274;7.796;2022-09-30T10:54:45;14.30;99.90
7360;DHT22;3720;48.274;7.796;2022-09-30T10:57:20;14.70;99.90
7360;DHT22;3720;48.274;7.796;2022-09-30T10:59:57;15.30;99.90
7360;DHT22;3720;48.274;7.796;2022-09-30T11:02:34;16.00;99.90
7360;DHT22;3720;48.274;7.796;2022-09-30T11:05:13;16.60;99.90
7360;DHT22;3720;48.274;7.796;2022-09-30T11:07:52;17.20;99.90
7360;DHT22;3720;48.274;7.796;2022-09-30T11:10:35;17.60;99.90
7360;DHT22;3720;48.274;7.796;2022-09-30T11:13:17;18.00;99.90
7360;DHT22;3720;48.274;7.796;2022-09-30T11:15:59;18.30;99.90
7360;DHT22;3720;48.274;7.796;2022-09-30T11:18:37;18.60;99.90
7360;DHT22;3720;48.274;7.796;2022-09-30T11:21:16;18.90;99.90
7360;DHT22;3720;48.274;7.796;2022-09-30T11:23:49;18.90;99.90
7360;DHT22;3720;48.274;7.796;2022-09-30T11:26:32;19.20;99.90
7360;DHT22;3720;48.274;7.796;2022-09-30T11:29:21;19.60;99.90
7360;DHT22;3720;48.274;7.796;2022-09-30T11:32:04;19.90;99.90
7360;DHT22;3720;48.274;7.796;2022-09-30T11:34:48;20.10;99.90
7360;DHT22;3720;48.274;7.796;2022-09-30T11:37:33;20.40;99.90
7360;DHT22;3720;48.274;7.796;2022-09-30T11:40:29;20.60;99.90
7360;DHT22;3720;48.274;7.796;2022-09-30T11:43:11;20.50;99.90
7360;DHT22;3720;48.274;7.796;2022-09-30T11:49:05;20.60;99.90
7360;DHT22;3720;48.274;7.796;2022-09-30T11:51:43;20.80;99.90
7360;DHT22;3720;48.274;7.796;2022-09-30T11:54:35;21.00;99.90
7360;DHT22;3720;48.274;7.796;2022-09-30T11:57:16;21.10;99.90
7360;DHT22;3720;48.274;7.796;2022-09-30T11:59:55;21.20;99.90
7360;DHT22;3720;48.274;7.796;2022-09-30T12:02:34;21.40;99.90
7360;DHT22;3720;48.274;7.796;2022-09-30T12:05:12;21.40;99.90
7360;DHT22;3720;48.274;7.796;2022-09-30T12:07:48;21.50;99.90
7360;DHT22;3720;48.274;7.796;2022-09-30T12:10:25;21.50;99.90
7360;DHT22;3720;48.274;7.796;2022-09-30T12:13:02;21.60;99.90
7360;DHT22;3720;48.274;7.796;2022-09-30T12:15:40;21.80;99.90
7360;DHT22;3720;48.274;7.796;2022-09-30T12:18:14;22.10;99.90
7360;DHT22;3720;48.274;7.796;2022-09-30T12:20:51;22.50;99.90
7360;DHT22;3720;48.274;7.796;2022-09-30T12:23:29;22.80;99.90
7360;DHT22;3720;48.274;7.796;2022-09-30T12:26:03;23.10;99.90
7360;DHT22;3720;48.274;7.796;2022-09-30T12:28:39;23.20;99.90
7360;DHT22;3720;48.274;7.796;2022-09-30T12:31:54;23.30;99.90
7360;DHT22;3720;48.274;7.796;2022-09-30T12:34:40;23.20;99.90
7360;DHT22;3720;48.274;7.796;2022-09-30T12:37:29;23.40;99.90
7360;DHT22;3720;48.274;7.796;2022-09-30T12:40:22;23.80;99.90
7360;DHT22;3720;48.274;7.796;2022-09-30T12:43:07;24.00;99.90
7360;DHT22;3720;48.274;7.796;2022-09-30T12:48:54;24.30;99.90
7360;DHT22;3720;48.274;7.796;2022-09-30T12:51:30;24.60;99.90
7360;DHT22;3720;48.274;7.796;2022-09-30T12:54:09;24.60;99.90
7360;DHT22;3720;48.274;7.796;2022-09-30T12:56:45;24.50;99.90
7360;DHT22;3720;48.274;7.796;2022-09-30T12:59:25;24.30;99.90
7360;DHT22;3720;48.274;7.796;2022-09-30T13:01:59;24.00;99.90
7360;DHT22;3720;48.274;7.796;2022-09-30T13:04:35;23.90;99.90
7360;DHT22;3720;48.274;7.796;2022-09-30T13:07:19;23.90;99.90
7360;DHT22;3720;48.274;7.796;2022-09-30T13:10:00;24.00;99.90
7360;DHT22;3720;48.274;7.796;2022-09-30T13:12:40;23.80;99.90
7360;DHT22;3720;48.274;7.796;2022-09-30T13:15:41;23.70;99.90
7360;DHT22;3720;48.274;7.796;2022-09-30T13:21:22;23.60;99.90
7360;DHT22;3720;48.274;7.796;2022-09-30T13:23:55;23.80;99.90
7360;DHT22;3720;48.274;7.796;2022-09-30T13:26:39;24.00;99.90
7360;DHT22;3720;48.274;7.796;2022-09-30T13:29:34;24.20;99.90
7360;DHT22;3720;48.274;7.796;2022-09-30T13:32:09;24.40;99.90
7360;DHT22;3720;48.274;7.796;2022-09-30T13:34:53;24.30;99.90
7360;DHT22;3720;48.274;7.796;2022-09-30T13:37:36;24.20;99.90
7360;DHT22;3720;48.274;7.796;2022-09-30T13:40:19;23.80;99.90
7360;DHT22;3720;48.274;7.796;2022-09-30T13:42:54;23.40;99.90
7360;DHT22;3720;48.274;7.796;2022-09-30T13:45:32;23.30;99.90
7360;DHT22;3720;48.274;7.796;2022-09-30T13:48:12;23.20;99.90
7360;DHT22;3720;48.274;7.796;2022-09-30T13:50:48;23.10;99.90
7360;DHT22;3720;48.274;7.796;2022-09-30T13:53:27;23.40;99.90
7360;DHT22;3720;48.274;7.796;2022-09-30T13:56:05;23.50;99.90
7360;DHT22;3720;48.274;7.796;2022-09-30T13:58:52;23.60;99.90
7360;DHT22;3720;48.274;7.796;2022-09-30T14:01:42;23.50;99.90
7360;DHT22;3720;48.274;7.796;2022-09-30T14:04:36;23.50;99.90
7360;DHT22;3720;48.274;7.796;2022-09-30T14:07:15;23.40;99.90
7360;DHT22;3720;48.274;7.796;2022-09-30T14:10:04;23.30;99.90
7360;DHT22;3720;48.274;7.796;2022-09-30T14:12:47;23.10;99.90
7360;DHT22;3720;48.274;7.796;2022-09-30T14:15:49;23.00;99.90
7360;DHT22;3720;48.274;7.796;2022-09-30T14:18:47;23.20;99.90
7360;DHT22;3720;48.274;7.796;2022-09-30T14:21:32;23.30;99.90
7360;DHT22;3720;48.274;7.796;2022-09-30T14:24:09;23.50;99.90
7360;DHT22;3720;48.274;7.796;2022-09-30T14:27:09;23.70;99.90
7360;DHT22;3720;48.274;7.796;2022-09-30T14:29:52;24.00;99.40
7360;DHT22;3720;48.274;7.796;2022-09-30T14:32:27;24.20;99.90
7360;DHT22;3720;48.274;7.796;2022-09-30T14:35:04;24.30;98.50
7360;DHT22;3720;48.274;7.796;2022-09-30T14:37:38;24.20;99.20
7360;DHT22;3720;48.274;7.796;2022-09-30T14:40:16;24.10;98.30
7360;DHT22;3720;48.274;7.796;2022-09-30T14:42:49;23.90;99.20
7360;DHT22;3720;48.274;7.796;2022-09-30T14:45:23;23.70;98.10
7360;DHT22;3720;48.274;7.796;2022-09-30T14:48:04;23.50;98.30
7360;DHT22;3720;48.274;7.796;2022-09-30T14:50:43;23.30;98.70
7360;DHT22;3720;48.274;7.796;2022-09-30T14:53:30;23.20;98.10
7360;DHT22;3720;48.274;7.796;2022-09-30T14:56:03;23.00;97.50
7360;DHT22;3720;48.274;7.796;2022-09-30T14:58:48;22.90;96.50
7360;DHT22;3720;48.274;7.796;2022-09-30T15:01:22;22.90;97.80
7360;DHT22;3720;48.274;7.796;2022-09-30T15:03:57;22.80;97.80
7360;DHT22;3720;48.274;7.796;2022-09-30T15:06:32;22.90;97.70
7360;DHT22;3720;48.274;7.796;2022-09-30T15:09:13;22.80;98.50
7360;DHT22;3720;48.274;7.796;2022-09-30T15:11:46;22.80;97.50
7360;DHT22;3720;48.274;7.796;2022-09-30T15:14:21;22.70;97.00
7360;DHT22;3720;48.274;7.796;2022-09-30T15:16:55;22.30;96.60
7360;DHT22;3720;48.274;7.796;2022-09-30T15:19:30;21.80;96.30
7360;DHT22;3720;48.274;7.796;2022-09-30T15:22:05;21.60;97.60
7360;DHT22;3720;48.274;7.796;2022-09-30T15:24:39;21.40;99.10
7360;DHT22;3720;48.274;7.796;2022-09-30T15:27:16;21.10;98.60
7360;DHT22;3720;48.274;7.796;2022-09-30T15:29:55;20.90;99.90
7360;DHT22;3720;48.274;7.796;2022-09-30T15:32:29;20.60;99.90
7360;DHT22;3720;48.274;7.796;2022-09-30T15:35:04;20.40;99.90
7360;DHT22;3720;48.274;7.796;2022-09-30T15:37:36;20.20;99.90
7360;DHT22;3720;48.274;7.796;2022-09-30T15:40:13;20.00;99.90
7360;DHT22;3720;48.274;7.796;2022-09-30T15:43:04;20.10;99.90
7360;DHT22;3720;48.274;7.796;2022-09-30T15:45:39;20.20;99.90
7360;DHT22;3720;48.274;7.796;2022-09-30T15:48:33;20.30;99.90
7360;DHT22;3720;48.274;7.796;2022-09-30T15:51:26;20.40;99.90
7360;DHT22;3720;48.274;7.796;2022-09-30T15:54:00;20.40;99.90
7360;DHT22;3720;48.274;7.796;2022-09-30T15:56:34;20.20;99.90
7360;DHT22;3720;48.274;7.796;2022-09-30T15:59:08;20.10;99.90
7360;DHT22;3720;48.274;7.796;2022-09-30T16:01:43;20.00;99.90
7360;DHT22;3720;48.274;7.796;2022-09-30T16:04:22;19.80;99.90
7360;DHT22;3720;48.274;7.796;2022-09-30T16:06:57;19.60;99.90
7360;DHT22;3720;48.274;7.796;2022-09-30T16:09:32;19.50;99.90
7360;DHT22;3720;48.274;7.796;2022-09-30T16:12:06;19.50;99.90
7360;DHT22;3720;48.274;7.796;2022-09-30T16:14:42;19.50;99.90
7360;DHT22;3720;48.274;7.796;2022-09-30T16:17:18;19.40;99.90
7360;DHT22;3720;48.274;7.796;2022-09-30T16:19:53;19.40;99.90
7360;DHT22;3720;48.274;7.796;2022-09-30T16:22:36;19.30;99.90
7360;DHT22;3720;48.274;7.796;2022-09-30T16:25:21;19.30;99.90
7360;DHT22;3720;48.274;7.796;2022-09-30T16:27:57;19.10;99.90
7360;DHT22;3720;48.274;7.796;2022-09-30T16:30:30;19.00;99.90
7360;DHT22;3720;48.274;7.796;2022-09-30T16:33:05;18.80;99.90
7360;DHT22;3720;48.274;7.796;2022-09-30T16:35:37;18.70;99.90
7360;DHT22;3720;48.274;7.796;2022-09-30T16:38:13;18.60;99.90
7360;DHT22;3720;48.274;7.796;2022-09-30T16:40:45;18.40;99.90
7360;DHT22;3720;48.274;7.796;2022-09-30T16:43:17;18.10;99.90
7360;DHT22;3720;48.274;7.796;2022-09-30T16:45:49;17.90;99.90
7360;DHT22;3720;48.274;7.796;2022-09-30T16:48:22;17.80;99.90
7360;DHT22;3720;48.274;7.796;2022-09-30T16:51:01;17.80;99.90
7360;DHT22;3720;48.274;7.796;2022-09-30T16:53:34;17.70;99.90
7360;DHT22;3720;48.274;7.796;2022-09-30T16:56:12;17.60;99.90
7360;DHT22;3720;48.274;7.796;2022-09-30T16:58:45;17.50;99.90
7360;DHT22;3720;48.274;7.796;2022-09-30T17:01:20;17.30;99.90
7360;DHT22;3720;48.274;7.796;2022-09-30T17:03:55;17.20;99.90
7360;DHT22;3720;48.274;7.796;2022-09-30T17:06:28;17.10;99.90
7360;DHT22;3720;48.274;7.796;2022-09-30T17:09:02;16.90;99.90
7360;DHT22;3720;48.274;7.796;2022-09-30T17:11:35;16.90;99.90
7360;DHT22;3720;48.274;7.796;2022-09-30T17:14:07;16.70;99.90
7360;DHT22;3720;48.274;7.796;2022-09-30T17:16:39;16.70;99.90
7360;DHT22;3720;48.274;7.796;2022-09-30T17:19:12;16.60;99.90